Terminal Aerodrome Forecast
Issued by NWS Shreveport, LA

Current Version | Previous Version | Text Only | Print | Product List | Glossary On
Versions: 1 2 3 4 5 6 7 8 9 10 11 12 13 14 15 16 17 18
395
FTUS44 KSHV 281419 AAB
TAFELD
TAF AMD
KELD 281419Z 2814/2912 13012KT P6SM -SHRA VCTS SCT050CB BKN090
     FM281600 21012KT P6SM SCT050 BKN120
     FM282100 22006KT P6SM VCTS SCT050CB BKN250
     FM290100 VRB10KT P6SM -TSRA BKN025CB=

USA.gov is the U.S. government's official web portal to all federal, state and local government web resources and services.